createdAt,value
2023-05-14T00:00:02.825Z,101550.03
2023-05-14T00:02:31.659Z,101544.97
2023-05-14T00:05:01.339Z,101532.03
2023-05-14T00:07:31.072Z,101525.16
2023-05-14T00:09:59.562Z,101529.53
2023-05-14T00:12:28.232Z,101538.13
2023-05-14T00:14:57.037Z,101535.53
2023-05-14T00:17:25.403Z,101530.28
2023-05-14T00:19:53.728Z,101531.09
2023-05-14T00:22:23.740Z,101526.81
2023-05-14T00:24:52.002Z,101530.34
2023-05-14T00:27:20.274Z,101530.41
2023-05-14T00:29:48.513Z,101529.56
2023-05-14T00:32:16.902Z,101524.38
2023-05-14T00:34:45.154Z,101520.13
2023-05-14T00:37:13.435Z,101517.56
2023-05-14T00:39:43.451Z,101520.16
2023-05-14T00:42:12.164Z,101521.03
2023-05-14T00:44:40.437Z,101519.28
2023-05-14T00:47:09.329Z,101513.31
2023-05-14T00:49:40.056Z,101507.38
2023-05-14T00:52:08.906Z,101514.41
2023-05-14T00:54:37.652Z,101505.84
2023-05-14T00:57:08.154Z,101508.38
2023-05-14T00:59:36.926Z,101521.28
2023-05-14T01:02:05.447Z,101507.34
2023-05-14T01:04:35.045Z,101508.06
2023-05-14T01:07:10.742Z,101511.34
2023-05-14T01:09:47.447Z,101502.56
2023-05-14T01:12:22.650Z,101505.00
2023-05-14T01:14:58.566Z,101495.38
2023-05-14T01:17:31.131Z,101490.91
2023-05-14T01:20:00.424Z,101483.03
2023-05-14T01:22:30.168Z,101493.25
2023-05-14T01:24:58.545Z,101494.88
2023-05-14T01:27:33.347Z,101487.78
2023-05-14T01:30:09.013Z,101486.72
2023-05-14T01:32:38.744Z,101478.78
2023-05-14T01:35:09.438Z,101472.56
2023-05-14T01:37:41.345Z,101477.69
2023-05-14T01:40:12.723Z,101476.00
2023-05-14T01:42:41.734Z,101470.06
2023-05-14T01:45:11.676Z,101465.84
2023-05-14T01:47:40.042Z,101471.13
2023-05-14T01:50:08.779Z,101470.41
2023-05-14T01:52:39.595Z,101479.19
2023-05-14T01:55:09.078Z,101470.63
2023-05-14T01:57:37.636Z,101468.09
2023-05-14T02:00:07.358Z,101472.44
2023-05-14T02:02:42.087Z,101467.38
2023-05-14T02:05:14.039Z,101471.72
2023-05-14T02:07:43.776Z,101469.19
2023-05-14T02:10:12.313Z,101466.66
2023-05-14T02:12:40.771Z,101468.50
2023-05-14T02:15:11.155Z,101465.09
2023-05-14T02:17:39.755Z,101458.22
2023-05-14T02:20:10.420Z,101458.28
2023-05-14T02:22:42.302Z,101454.03
2023-05-14T02:25:12.652Z,101448.16
2023-05-14T02:27:41.115Z,101451.69
2023-05-14T02:30:11.081Z,101447.44
2023-05-14T02:32:40.339Z,101449.25
2023-05-14T02:35:09.809Z,101448.44
2023-05-14T02:37:39.128Z,101446.84
2023-05-14T02:40:09.249Z,101439.13
2023-05-14T02:42:39.066Z,101433.94
2023-05-14T02:45:08.514Z,101445.19
2023-05-14T02:47:38.217Z,101446.09
2023-05-14T02:50:08.283Z,101436.59
2023-05-14T02:52:37.029Z,101440.06
2023-05-14T02:55:06.881Z,101451.34
2023-05-14T02:57:35.496Z,101452.22
2023-05-14T03:00:06.730Z,101445.25
2023-05-14T03:02:35.995Z,101446.09
2023-05-14T03:05:04.908Z,101452.03
2023-05-14T03:07:33.534Z,101440.66
2023-05-14T03:10:01.816Z,101439.59
2023-05-14T03:12:30.590Z,101437.72
2023-05-14T03:14:58.801Z,101439.19
2023-05-14T03:17:28.868Z,101437.25
2023-05-14T03:19:57.888Z,101426.66
2023-05-14T03:22:26.333Z,101427.31
2023-05-14T03:24:54.953Z,101428.00
2023-05-14T03:27:23.781Z,101430.47
2023-05-14T03:29:52.395Z,101420.00
2023-05-14T03:32:21.443Z,101412.13
2023-05-14T03:34:51.303Z,101424.16
2023-05-14T03:37:19.536Z,101416.25
2023-05-14T03:39:47.940Z,101410.00
2023-05-14T03:42:16.239Z,101415.91
2023-05-14T03:44:44.864Z,101413.09
2023-05-14T03:47:13.335Z,101412.09
2023-05-14T03:49:41.814Z,101418.00
2023-05-14T03:52:13.946Z,101409.25
2023-05-14T03:54:44.779Z,101403.38
2023-05-14T03:57:13.368Z,101406.50
2023-05-14T03:59:42.499Z,101406.41
2023-05-14T04:02:11.030Z,101411.50
2023-05-14T04:04:39.383Z,101410.63
2023-05-14T04:07:08.904Z,101403.72
2023-05-14T04:09:38.650Z,101399.38
2023-05-14T04:12:08.109Z,101391.50
2023-05-14T04:14:36.815Z,101398.31
2023-05-14T04:17:05.480Z,101399.13
2023-05-14T04:19:33.787Z,101396.59
2023-05-14T04:22:02.112Z,101399.97
2023-05-14T04:24:30.719Z,101402.53
2023-05-14T04:27:00.593Z,101395.41
2023-05-14T04:29:28.883Z,101389.22
2023-05-14T04:31:57.797Z,101396.97
2023-05-14T04:34:26.451Z,101392.69
2023-05-14T04:36:54.737Z,101390.06
2023-05-14T04:39:23.496Z,101402.31
2023-05-14T04:41:51.814Z,101393.81
2023-05-14T04:44:21.534Z,101403.44
2023-05-14T04:46:49.864Z,101398.28
2023-05-14T04:49:21.017Z,101394.78
2023-05-14T04:51:49.684Z,101400.00
2023-05-14T04:54:17.994Z,101392.28
2023-05-14T04:56:46.261Z,101394.00
2023-05-14T04:59:14.595Z,101393.41
2023-05-14T05:01:45.635Z,101393.06
2023-05-14T05:04:14.282Z,101391.31
2023-05-14T05:06:42.595Z,101390.38
2023-05-14T05:09:10.939Z,101400.88
2023-05-14T05:11:39.747Z,101388.81
2023-05-14T05:14:07.977Z,101394.97
2023-05-14T05:16:36.648Z,101401.78
2023-05-14T05:19:06.623Z,101392.19
2023-05-14T05:21:35.470Z,101394.78
2023-05-14T05:24:03.764Z,101413.00
2023-05-14T05:26:32.013Z,101410.47
2023-05-14T05:29:01.032Z,101409.63
2023-05-14T05:31:29.374Z,101409.63
2023-05-14T05:33:57.823Z,101409.56
2023-05-14T05:36:28.812Z,101405.88
2023-05-14T05:38:57.604Z,101403.94
2023-05-14T05:41:26.723Z,101415.00
2023-05-14T05:43:55.100Z,101408.88
2023-05-14T05:46:23.550Z,101406.13
2023-05-14T05:48:53.338Z,101418.25
2023-05-14T05:51:21.698Z,101419.03
2023-05-14T05:53:51.343Z,101418.09
2023-05-14T05:56:19.613Z,101414.44
2023-05-14T05:58:47.906Z,101419.59
2023-05-14T06:01:16.231Z,101427.41
2023-05-14T06:03:46.917Z,101423.78
2023-05-14T06:06:16.744Z,101423.75
2023-05-14T06:08:45.019Z,101428.09
2023-05-14T06:11:17.072Z,101418.59
2023-05-14T06:13:45.502Z,101416.25
2023-05-14T06:16:14.102Z,101422.22
2023-05-14T06:18:42.528Z,101419.63
2023-05-14T06:21:10.872Z,101410.84
2023-05-14T06:23:39.172Z,101421.00
2023-05-14T06:26:07.839Z,101414.75
2023-05-14T06:28:37.600Z,101416.28
2023-05-14T06:31:06.051Z,101411.84
2023-05-14T06:33:34.376Z,101421.25
2023-05-14T06:36:07.905Z,101412.31
2023-05-14T06:38:36.173Z,101409.72
2023-05-14T06:41:04.408Z,101413.16
2023-05-14T06:43:32.669Z,101398.34
2023-05-14T06:46:02.653Z,101400.75
2023-05-14T06:48:31.098Z,101404.88
2023-05-14T06:50:59.540Z,101402.78
2023-05-14T06:53:27.869Z,101400.84
2023-05-14T06:55:56.472Z,101404.06
2023-05-14T06:58:24.691Z,101388.91
2023-05-14T07:00:52.938Z,101396.44
2023-05-14T07:03:23.063Z,101399.81
2023-05-14T07:05:52.029Z,101398.81
2023-05-14T07:08:20.261Z,101401.13
2023-05-14T07:10:48.674Z,101398.38
2023-05-14T07:13:17.186Z,101394.66
2023-05-14T07:15:45.415Z,101386.59
2023-05-14T07:18:13.869Z,101388.78
2023-05-14T07:20:43.629Z,101398.72
2023-05-14T07:23:12.251Z,101396.84
2023-05-14T07:25:40.619Z,101405.66
2023-05-14T07:28:08.924Z,101396.22
2023-05-14T07:30:37.551Z,101401.47
2023-05-14T07:33:05.955Z,101402.22
2023-05-14T07:35:34.302Z,101390.78
2023-05-14T07:38:05.810Z,101394.91
2023-05-14T07:40:34.484Z,101396.25
2023-05-14T07:43:02.729Z,101389.09
2023-05-14T07:45:31.048Z,101391.44
2023-05-14T07:47:59.442Z,101394.72
2023-05-14T07:50:28.139Z,101402.44
2023-05-14T07:52:56.380Z,101398.06
2023-05-14T07:55:26.114Z,101404.72
2023-05-14T07:57:54.744Z,101402.25
2023-05-14T08:00:23.573Z,101393.78
2023-05-14T08:02:52.547Z,101397.28
2023-05-14T08:05:21.098Z,101400.66
2023-05-14T08:07:49.710Z,101398.25
2023-05-14T08:10:18.004Z,101396.41
2023-05-14T08:12:48.033Z,101405.56
2023-05-14T08:15:16.520Z,101407.81
2023-05-14T08:17:44.820Z,101395.25
2023-05-14T08:20:13.436Z,101410.06
2023-05-14T08:22:41.758Z,101395.91
2023-05-14T08:25:10.629Z,101400.66
2023-05-14T08:27:38.907Z,101398.31
2023-05-14T08:30:09.693Z,101395.38
2023-05-14T08:32:38.668Z,101397.03
2023-05-14T08:35:08.430Z,101397.13
2023-05-14T08:37:36.654Z,101389.94
2023-05-14T08:40:05.408Z,101401.69
2023-05-14T08:42:34.138Z,101398.72
2023-05-14T08:45:03.748Z,101405.28
2023-05-14T08:47:33.726Z,101407.50
2023-05-14T08:50:05.050Z,101398.28
2023-05-14T08:52:34.166Z,101407.34
2023-05-14T08:55:05.398Z,101405.41
2023-05-14T08:57:35.164Z,101408.91
2023-05-14T09:00:08.417Z,101396.97
2023-05-14T09:02:38.801Z,101397.00
2023-05-14T09:05:09.441Z,101389.81
2023-05-14T09:07:38.117Z,101386.13
2023-05-14T09:10:09.102Z,101391.97
2023-05-14T09:12:37.697Z,101388.88
2023-05-14T09:15:07.355Z,101392.91
2023-05-14T09:17:37.564Z,101394.97
2023-05-14T09:20:07.319Z,101391.69
2023-05-14T09:22:36.202Z,101389.06
2023-05-14T09:25:06.990Z,101384.63
2023-05-14T09:27:35.702Z,101382.31
2023-05-14T09:30:09.683Z,101385.34
2023-05-14T09:32:41.108Z,101373.00
2023-05-14T09:35:18.521Z,101387.69
2023-05-14T09:37:49.060Z,101369.56
2023-05-14T09:40:18.849Z,101374.41
2023-05-14T09:42:48.307Z,101381.25
2023-05-14T09:45:17.542Z,101378.38
2023-05-14T09:47:47.553Z,101385.47
2023-05-14T09:50:16.020Z,101375.97
2023-05-14T09:52:44.338Z,101389.75
2023-05-14T09:55:12.900Z,101388.63
2023-05-14T09:57:41.260Z,101383.94
2023-05-14T10:00:12.868Z,101378.09
2023-05-14T10:02:43.208Z,101378.28
2023-05-14T10:05:14.018Z,101375.50
2023-05-14T10:07:46.386Z,101386.88
2023-05-14T10:10:17.824Z,101377.69
2023-05-14T10:12:52.574Z,101383.34
2023-05-14T10:15:25.268Z,101378.38
2023-05-14T10:17:58.984Z,101392.47
2023-05-14T10:20:30.021Z,101375.72
2023-05-14T10:22:59.442Z,101361.00
2023-05-14T10:25:28.432Z,101371.78
2023-05-14T10:27:57.178Z,101374.22
2023-05-14T10:30:26.199Z,101369.00
2023-05-14T10:33:10.370Z,101368.31
2023-05-14T10:36:01.788Z,101365.88
2023-05-14T10:38:30.859Z,101373.44
2023-05-14T10:41:04.425Z,101365.28
2023-05-14T10:43:38.672Z,101361.66
2023-05-14T10:46:08.339Z,101369.66
2023-05-14T10:48:38.750Z,101370.16
2023-05-14T10:51:11.636Z,101368.94
2023-05-14T10:53:41.703Z,101365.41
2023-05-14T10:56:11.408Z,101361.41
2023-05-14T10:58:41.641Z,101364.72
2023-05-14T11:01:13.233Z,101355.56
2023-05-14T11:03:43.319Z,101366.59
2023-05-14T11:06:15.561Z,101363.44
2023-05-14T11:08:52.746Z,101362.06
2023-05-14T11:11:21.887Z,101358.00
2023-05-14T11:13:51.910Z,101367.06
2023-05-14T11:16:24.260Z,101363.75
2023-05-14T11:19:03.501Z,101358.91
2023-05-14T11:21:34.005Z,101363.19
2023-05-14T11:24:03.855Z,101373.22
2023-05-14T11:26:33.179Z,101366.13
2023-05-14T11:29:01.688Z,101370.38
2023-05-14T11:31:30.134Z,101371.94
2023-05-14T11:33:58.529Z,101370.81
2023-05-14T11:36:26.751Z,101380.69
2023-05-14T11:38:56.455Z,101369.22
2023-05-14T11:41:26.406Z,101373.75
2023-05-14T11:43:54.946Z,101371.09
2023-05-14T11:46:23.915Z,101372.56
2023-05-14T11:48:52.526Z,101366.81
2023-05-14T11:51:23.137Z,101366.84
2023-05-14T11:53:51.366Z,101371.41
2023-05-14T11:56:22.665Z,101369.50
2023-05-14T11:58:51.050Z,101361.16
2023-05-14T12:01:19.636Z,101360.22
2023-05-14T12:03:48.042Z,101360.44
2023-05-14T12:06:16.317Z,101352.78
2023-05-14T12:08:44.530Z,101344.66
2023-05-14T12:11:14.210Z,101345.28
2023-05-14T12:13:43.863Z,101347.78
2023-05-14T12:16:14.235Z,101343.44
2023-05-14T12:18:44.547Z,101339.53
2023-05-14T12:21:13.392Z,101344.78
2023-05-14T12:23:42.060Z,101353.28
2023-05-14T12:26:10.874Z,101353.91
2023-05-14T12:28:43.495Z,101341.78
2023-05-14T12:31:13.451Z,101350.78
2023-05-14T12:33:43.027Z,101340.09
2023-05-14T12:36:21.094Z,101329.03
2023-05-14T12:38:50.658Z,101337.00
2023-05-14T12:41:18.951Z,101339.16
2023-05-14T12:43:49.991Z,101327.22
2023-05-14T12:46:19.717Z,101319.94
2023-05-14T12:48:48.828Z,101316.34
2023-05-14T12:51:18.946Z,101310.84
2023-05-14T12:53:47.243Z,101320.84
2023-05-14T12:56:16.143Z,101325.44
2023-05-14T12:58:44.323Z,101317.13
2023-05-14T13:01:12.999Z,101327.38
2023-05-14T13:03:42.887Z,101317.34
2023-05-14T13:06:11.123Z,101324.34
2023-05-14T13:08:40.534Z,101314.81
2023-05-14T13:11:11.556Z,101315.63
2023-05-14T13:13:39.920Z,101317.31
2023-05-14T13:16:08.741Z,101315.91
2023-05-14T13:18:37.111Z,101315.47
2023-05-14T13:21:07.011Z,101312.63
2023-05-14T13:23:36.052Z,101310.69
2023-05-14T13:26:04.616Z,101306.19
2023-05-14T13:28:33.053Z,101304.06
2023-05-14T13:31:09.152Z,101300.25
2023-05-14T13:33:38.624Z,101304.41
2023-05-14T13:36:09.303Z,101302.28
2023-05-14T13:38:37.611Z,101295.81
2023-05-14T13:41:06.251Z,101297.94
2023-05-14T13:43:35.883Z,101302.56
2023-05-14T13:46:06.112Z,101294.56
2023-05-14T13:48:34.481Z,101290.13
2023-05-14T13:51:02.877Z,101297.94
2023-05-14T13:53:32.628Z,101291.00
2023-05-14T13:56:01.916Z,101294.13
2023-05-14T13:58:30.192Z,101285.81
2023-05-14T14:00:58.492Z,101296.22
2023-05-14T14:03:26.766Z,101300.22
2023-05-14T14:05:55.007Z,101292.25
2023-05-14T14:08:24.514Z,101292.81
2023-05-14T14:10:55.833Z,101297.16
2023-05-14T14:13:24.877Z,101296.47
2023-05-14T14:15:55.936Z,101290.56
2023-05-14T14:18:25.873Z,101293.50
2023-05-14T14:20:54.138Z,101291.28
2023-05-14T14:23:22.315Z,101288.44
2023-05-14T14:25:50.748Z,101287.25
2023-05-14T14:28:20.452Z,101282.41
2023-05-14T14:30:48.731Z,101287.31
2023-05-14T14:33:17.073Z,101282.63
2023-05-14T14:35:45.642Z,101280.72
2023-05-14T14:38:15.459Z,101279.13
2023-05-14T14:40:43.678Z,101266.97
2023-05-14T14:43:11.848Z,101264.38
2023-05-14T14:45:42.947Z,101271.31
2023-05-14T14:48:25.523Z,101262.50
2023-05-14T14:50:54.413Z,101266.84
2023-05-14T14:53:23.216Z,101265.91
2023-05-14T14:55:52.296Z,101262.88
2023-05-14T14:58:22.030Z,101268.44
2023-05-14T15:00:55.091Z,101257.75
2023-05-14T15:03:26.873Z,101261.81
2023-05-14T15:05:55.871Z,101255.88
2023-05-14T15:08:27.747Z,101251.59
2023-05-14T15:10:59.620Z,101256.72
2023-05-14T15:13:28.631Z,101261.81
2023-05-14T15:15:59.000Z,101248.66
2023-05-14T15:18:27.727Z,101245.81
2023-05-14T15:20:57.649Z,101238.66
2023-05-14T15:23:28.905Z,101251.63
2023-05-14T15:25:57.176Z,101249.78
2023-05-14T15:28:25.365Z,101241.75
2023-05-14T15:30:53.661Z,101251.59
2023-05-14T15:33:24.075Z,101238.19
2023-05-14T15:35:52.613Z,101237.03
2023-05-14T15:38:20.704Z,101237.28
2023-05-14T15:40:48.977Z,101232.50
2023-05-14T15:43:17.147Z,101235.25
2023-05-14T15:45:46.565Z,101231.25
2023-05-14T15:48:15.364Z,101233.47
2023-05-14T15:50:45.132Z,101237.47
2023-05-14T15:53:13.307Z,101245.47
2023-05-14T15:55:41.978Z,101245.75
2023-05-14T15:58:10.472Z,101240.34
2023-05-14T16:00:38.641Z,101240.13
2023-05-14T16:03:07.216Z,101242.03
2023-05-14T16:05:35.706Z,101249.19
2023-05-14T16:08:05.244Z,101249.44
2023-05-14T16:10:33.444Z,101250.38
2023-05-14T16:13:01.719Z,101252.91
2023-05-14T16:15:30.193Z,101249.03
2023-05-14T16:17:58.667Z,101251.25
2023-05-14T16:20:26.864Z,101246.28
2023-05-14T16:22:54.975Z,101241.84
2023-05-14T16:25:24.771Z,101242.63
2023-05-14T16:27:52.980Z,101246.56
2023-05-14T16:30:21.158Z,101242.78
2023-05-14T16:32:49.693Z,101241.06
2023-05-14T16:35:18.308Z,101240.22
2023-05-14T16:37:48.086Z,101241.97
2023-05-14T16:40:16.499Z,101235.81
2023-05-14T16:42:49.055Z,101230.78
2023-05-14T16:45:17.549Z,101226.81
2023-05-14T16:47:46.000Z,101232.41
2023-05-14T16:50:14.534Z,101230.69
2023-05-14T16:52:43.664Z,101230.69
2023-05-14T16:55:12.228Z,101240.28
2023-05-14T16:57:40.923Z,101235.72
2023-05-14T17:00:12.307Z,101239.09
2023-05-14T17:02:40.572Z,101238.28
2023-05-14T17:05:09.680Z,101232.84
2023-05-14T17:07:39.625Z,101224.81
2023-05-14T17:10:08.906Z,101221.22
2023-05-14T17:12:37.088Z,101221.16
2023-05-14T17:15:06.203Z,101220.81
2023-05-14T17:17:36.400Z,101226.56
2023-05-14T17:20:06.422Z,101226.06
2023-05-14T17:22:34.708Z,101230.47
2023-05-14T17:25:02.985Z,101231.03
2023-05-14T17:27:33.320Z,101232.69
2023-05-14T17:30:01.833Z,101225.13
2023-05-14T17:32:31.207Z,101232.91
2023-05-14T17:35:01.137Z,101226.28
2023-05-14T17:37:29.456Z,101229.31
2023-05-14T17:39:58.613Z,101225.47
2023-05-14T17:42:26.886Z,101227.72
2023-05-14T17:44:56.376Z,101236.28
2023-05-14T17:47:24.547Z,101230.97
2023-05-14T17:49:53.105Z,101239.06
2023-05-14T17:52:22.830Z,101229.59
2023-05-14T17:54:51.385Z,101229.25
2023-05-14T17:57:19.699Z,101226.81
2023-05-14T17:59:47.838Z,101229.16
2023-05-14T18:02:16.064Z,101228.44
2023-05-14T18:04:44.264Z,101235.53
2023-05-14T18:07:12.487Z,101234.28
2023-05-14T18:09:42.430Z,101230.88
2023-05-14T18:12:11.013Z,101230.97
2023-05-14T18:14:39.224Z,101221.41
2023-05-14T18:17:07.529Z,101226.28
2023-05-14T18:19:36.707Z,101238.31
2023-05-14T18:22:05.330Z,101223.47
2023-05-14T18:24:33.599Z,101227.28
2023-05-14T18:27:03.547Z,101225.28
2023-05-14T18:29:31.747Z,101223.22
2023-05-14T18:32:00.896Z,101218.78
2023-05-14T18:34:29.245Z,101215.19
2023-05-14T18:36:57.902Z,101209.81
2023-05-14T18:39:26.191Z,101221.50
2023-05-14T18:41:55.217Z,101222.75
2023-05-14T18:44:24.908Z,101226.72
2023-05-14T18:46:53.447Z,101225.88
2023-05-14T18:49:22.099Z,101220.41
2023-05-14T18:51:50.460Z,101231.31
2023-05-14T18:54:18.932Z,101227.16
2023-05-14T18:56:47.765Z,101228.31
2023-05-14T18:59:16.167Z,101224.41
2023-05-14T19:01:45.926Z,101231.84
2023-05-14T19:04:14.428Z,101233.75
2023-05-14T19:06:42.665Z,101229.66
2023-05-14T19:09:11.523Z,101240.91
2023-05-14T19:11:39.682Z,101239.75
2023-05-14T19:14:09.112Z,101236.78
2023-05-14T19:16:37.394Z,101250.22
2023-05-14T19:19:07.040Z,101233.91
2023-05-14T19:21:35.396Z,101243.84
2023-05-14T19:24:03.596Z,101241.25
2023-05-14T19:26:31.822Z,101237.78
2023-05-14T19:29:00.012Z,101229.94
2023-05-14T19:31:28.927Z,101239.44
2023-05-14T19:33:57.388Z,101242.66
2023-05-14T19:36:27.190Z,101245.22
2023-05-14T19:38:55.390Z,101232.94
2023-05-14T19:41:23.567Z,101238.28
2023-05-14T19:43:52.069Z,101239.66
2023-05-14T19:46:20.357Z,101229.63
2023-05-14T19:48:48.610Z,101223.09
2023-05-14T19:51:18.403Z,101226.75
2023-05-14T19:53:48.029Z,101229.50
2023-05-14T19:56:16.243Z,101226.16
2023-05-14T19:58:44.886Z,101226.00
2023-05-14T20:01:13.240Z,101226.56
2023-05-14T20:03:41.608Z,101227.91
2023-05-14T20:06:10.910Z,101230.41
2023-05-14T20:08:39.210Z,101235.56
2023-05-14T20:11:10.167Z,101231.19
2023-05-14T20:13:38.519Z,101240.94
2023-05-14T20:16:07.419Z,101235.13
2023-05-14T20:18:35.779Z,101240.50
2023-05-14T20:21:04.140Z,101236.97
2023-05-14T20:23:32.504Z,101235.13
2023-05-14T20:26:01.954Z,101238.50
2023-05-14T20:28:31.700Z,101238.38
2023-05-14T20:31:00.301Z,101234.00
2023-05-14T20:33:29.285Z,101238.25
2023-05-14T20:35:57.801Z,101236.47
2023-05-14T20:38:29.575Z,101235.75
2023-05-14T20:40:57.853Z,101241.94
2023-05-14T20:43:27.783Z,101244.25
2023-05-14T20:45:58.915Z,101245.44
2023-05-14T20:48:27.582Z,101248.38
2023-05-14T20:50:55.856Z,101248.66
2023-05-14T20:53:25.470Z,101244.31
2023-05-14T20:55:53.713Z,101240.94
2023-05-14T20:58:22.050Z,101240.16
2023-05-14T21:00:50.211Z,101242.84
2023-05-14T21:03:20.165Z,101239.44
2023-05-14T21:05:48.479Z,101242.84
2023-05-14T21:08:17.278Z,101239.31
2023-05-14T21:10:45.505Z,101234.00
2023-05-14T21:13:13.735Z,101233.09
2023-05-14T21:15:42.016Z,101226.13
2023-05-14T21:18:10.326Z,101226.97
2023-05-14T21:20:40.081Z,101226.13
2023-05-14T21:23:08.385Z,101223.63
2023-05-14T21:25:36.942Z,101226.16
2023-05-14T21:28:05.287Z,101219.19
2023-05-14T21:30:33.503Z,101221.75
2023-05-14T21:33:01.802Z,101220.00
2023-05-14T21:35:30.041Z,101223.44
2023-05-14T21:37:59.788Z,101227.69
2023-05-14T21:40:27.972Z,101225.94
2023-05-14T21:42:56.268Z,101224.22
2023-05-14T21:45:37.441Z,101212.19
2023-05-14T21:48:06.378Z,101219.28
2023-05-14T21:50:34.653Z,101221.94
2023-05-14T21:53:04.367Z,101222.66
2023-05-14T21:55:32.784Z,101220.00
2023-05-14T21:58:01.270Z,101217.16
2023-05-14T22:00:29.582Z,101212.66
2023-05-14T22:02:58.097Z,101206.38
2023-05-14T22:05:26.872Z,101211.66
2023-05-14T22:07:55.331Z,101205.63
2023-05-14T22:10:25.238Z,101207.25
2023-05-14T22:12:53.454Z,101217.69
2023-05-14T22:15:21.891Z,101196.69
2023-05-14T22:17:50.256Z,101201.78
2023-05-14T22:20:18.767Z,101202.59
2023-05-14T22:22:47.012Z,101198.47
2023-05-14T22:25:15.275Z,101204.63
2023-05-14T22:27:45.033Z,101203.78
2023-05-14T22:30:13.549Z,101198.69
2023-05-14T22:32:42.492Z,101191.75
2023-05-14T22:35:11.344Z,101185.66
2023-05-14T22:37:39.449Z,101189.09
2023-05-14T22:40:09.213Z,101185.66
2023-05-14T22:42:37.378Z,101181.44
2023-05-14T22:45:08.506Z,101181.63
2023-05-14T22:47:36.718Z,101176.41
2023-05-14T22:50:07.438Z,101180.59
2023-05-14T22:52:35.977Z,101179.72
2023-05-14T22:55:04.167Z,101181.53
2023-05-14T22:57:32.540Z,101173.47
2023-05-14T23:00:00.867Z,101170.78
2023-05-14T23:02:30.539Z,101171.66
2023-05-14T23:04:58.834Z,101166.41
2023-05-14T23:07:27.108Z,101161.97
2023-05-14T23:09:55.582Z,101172.31
2023-05-14T23:12:23.842Z,101169.03
2023-05-14T23:14:52.100Z,101163.81
2023-05-14T23:17:20.466Z,101173.47
2023-05-14T23:19:50.182Z,101163.28
2023-05-14T23:22:18.805Z,101168.25
2023-05-14T23:24:47.060Z,101169.84
2023-05-14T23:27:15.255Z,101166.13
2023-05-14T23:29:44.213Z,101169.97
2023-05-14T23:32:13.026Z,101169.59
2023-05-14T23:34:41.460Z,101173.44
2023-05-14T23:37:11.496Z,101162.41
2023-05-14T23:39:39.954Z,101161.78
2023-05-14T23:42:09.295Z,101156.03
2023-05-14T23:44:37.617Z,101167.63
2023-05-14T23:47:07.476Z,101161.19
2023-05-14T23:49:36.197Z,101156.16
2023-05-14T23:52:04.530Z,101169.25
2023-05-14T23:54:34.180Z,101164.03
2023-05-14T23:57:04.508Z,101164.16
2023-05-14T23:59:32.807Z,101159.84
